Time;durP1;ratioP1;P1;durP2;ratioP2;P2;SDS_P1;SDS_P2;PMS_P1;PMS_P2;Temp;Humidity;BMP_temperature;BMP_pressure;BME280_temperature;BME280_humidity;BME280_pressure;Samples;Min_cycle;Max_cycle;Signal;HPM_P1;HPM_P2
2022/10/21 00:01:36;;;;;;;3.35;2.60;;;;;;;19.22;58.72;100441.97;5063675;28;20045;-48
2022/10/21 00:04:02;;;;;;;2.67;2.20;;;;;;;19.21;58.71;100445.56;5063836;28;20763;-48
2022/10/21 00:06:28;;;;;;;2.53;2.30;;;;;;;19.22;58.81;100457.78;5057180;28;20215;-49
2022/10/21 00:08:54;;;;;;;3.42;2.38;;;;;;;19.22;58.70;100456.94;5062685;28;20040;-48
2022/10/21 00:11:19;;;;;;;3.00;2.20;;;;;;;19.23;58.69;100459.47;5064783;28;20036;-47
2022/10/21 00:13:44;;;;;;;3.35;2.15;;;;;;;19.22;58.73;100455.13;5063276;28;20044;-49
2022/10/21 00:16:14;;;;;;;3.05;2.55;;;;;;;19.22;58.81;100457.78;5062681;28;20427;-49
2022/10/21 00:18:41;;;;;;;2.80;2.53;;;;;;;19.22;58.66;100456.94;5061557;28;20052;-48
2022/10/21 00:21:15;;;;;;;2.45;2.08;;;;;;;19.23;58.77;100453.34;5060609;28;20039;-47
2022/10/21 00:23:41;;;;;;;3.03;2.70;;;;;;;19.21;58.70;100452.63;5061009;28;20128;-48
2022/10/21 00:26:07;;;;;;;4.28;2.78;;;;;;;19.20;58.78;100446.50;5064476;28;20033;-46
2022/10/21 00:28:32;;;;;;;2.97;2.10;;;;;;;19.21;58.71;100449.97;5067937;28;20053;-47
2022/10/21 00:30:58;;;;;;;3.42;2.30;;;;;;;19.20;58.65;100449.13;5061935;28;20135;-47
2022/10/21 00:33:24;;;;;;;2.88;2.53;;;;;;;19.21;58.71;100448.19;5061135;28;20133;-46
2022/10/21 00:35:52;;;;;;;2.88;2.45;;;;;;;19.20;58.73;100438.59;5061989;28;20028;-48
2022/10/21 00:38:17;;;;;;;2.60;2.05;;;;;;;19.21;58.74;100436.81;5059332;28;20966;-47
2022/10/21 00:40:43;;;;;;;3.15;2.72;;;;;;;19.19;58.62;100439.53;5061368;28;20104;-47
2022/10/21 00:43:10;;;;;;;3.03;2.40;;;;;;;19.20;58.69;100427.22;5062205;28;20032;-49
2022/10/21 00:45:36;;;;;;;2.67;2.15;;;;;;;19.21;58.81;100427.13;5066578;28;20036;-47
2022/10/21 00:48:14;;;;;;;2.78;2.30;;;;;;;19.20;58.69;100432.47;5065410;28;20051;-47
2022/10/21 00:50:44;;;;;;;2.97;2.20;;;;;;;19.20;58.71;100424.59;5065774;28;20020;-49
2022/10/21 00:53:13;;;;;;;4.18;2.78;;;;;;;19.20;58.71;100435.13;5059285;28;20618;-50
2022/10/21 00:55:44;;;;;;;3.95;2.42;;;;;;;19.20;58.63;100421.94;5064461;28;20035;-51
2022/10/21 00:58:10;;;;;;;2.92;2.50;;;;;;;19.19;58.62;100412.38;5058938;28;20036;-48
2022/10/21 01:00:35;;;;;;;4.18;2.67;;;;;;;19.18;58.58;100411.53;5058997;28;20055;-48
2022/10/21 01:03:02;;;;;;;2.65;2.45;;;;;;;19.20;58.61;100414.03;5063742;28;20055;-50
2022/10/21 01:05:28;;;;;;;2.45;2.10;;;;;;;19.19;58.65;100404.47;5059832;28;20191;-47
2022/10/21 01:07:53;;;;;;;2.95;2.25;;;;;;;19.18;58.70;100415.94;5061636;28;20062;-49
2022/10/21 01:10:19;;;;;;;3.33;2.40;;;;;;;19.19;58.69;100410.56;5064357;28;20114;-48
2022/10/21 01:12:56;;;;;;;2.45;2.25;;;;;;;19.19;58.96;100409.75;5063920;28;20040;-48
2022/10/21 01:15:32;;;;;;;2.90;2.28;;;;;;;19.18;58.62;100413.31;5057935;28;20078;-47
2022/10/21 01:18:07;;;;;;;3.75;2.50;;;;;;;19.19;58.75;100407.09;5061200;28;20763;-48
2022/10/21 01:20:58;;;;;;;2.80;2.40;;;;;;;19.18;58.84;100398.34;5057328;28;20028;-49
2022/10/21 01:23:51;;;;;;;3.45;2.17;;;;;;;19.17;58.59;100396.66;5058790;28;20036;-46
2022/10/21 01:26:35;;;;;;;3.15;2.10;;;;;;;19.18;58.73;100400.13;5062107;28;20044;-48
2022/10/21 01:29:25;;;;;;;2.75;2.22;;;;;;;19.17;58.63;100386.13;5063492;28;20033;-48
2022/10/21 01:32:04;;;;;;;2.47;2.08;;;;;;;19.17;58.58;100382.63;5059629;28;20036;-49
2022/10/21 01:35:02;;;;;;;2.53;2.17;;;;;;;19.16;58.65;100373.06;5061157;28;20481;-49
2022/10/21 01:37:42;;;;;;;3.40;2.20;;;;;;;19.16;58.75;100373.88;5061375;28;20544;-46
2022/10/21 01:40:14;;;;;;;3.65;2.40;;;;;;;19.16;58.69;100363.34;5060392;28;20041;-47
2022/10/21 01:42:58;;;;;;;2.75;2.20;;;;;;;19.17;58.70;100353.69;5059850;28;20584;-48
2022/10/21 01:45:29;;;;;;;2.60;2.30;;;;;;;19.17;58.61;100357.16;5064228;28;20041;-48
2022/10/21 01:48:04;;;;;;;2.58;2.15;;;;;;;19.16;58.81;100350.19;5062558;28;20131;-48
2022/10/21 01:50:36;;;;;;;2.70;2.40;;;;;;;19.17;58.62;100357.16;5061464;28;20094;-49
2022/10/21 01:53:06;;;;;;;2.95;2.35;;;;;;;19.15;58.62;100359.06;5060075;28;20530;-48
2022/10/21 01:55:33;;;;;;;2.50;2.25;;;;;;;19.16;58.33;100352.00;5061194;28;20040;-49
2022/10/21 01:58:14;;;;;;;2.45;2.25;;;;;;;19.16;58.69;100358.09;5058778;28;20063;-48
2022/10/21 02:00:42;;;;;;;2.45;2.25;;;;;;;19.17;58.71;100353.69;5058736;28;20036;-49
2022/10/21 02:03:15;;;;;;;3.30;2.33;;;;;;;19.16;58.63;100350.19;5066522;28;20393;-48
2022/10/21 02:05:40;;;;;;;2.72;2.45;;;;;;;19.16;58.69;100344.94;5063373;28;20028;-48
2022/10/21 02:08:06;;;;;;;3.10;2.40;;;;;;;19.15;58.64;100340.63;5064472;28;20039;-48
2022/10/21 02:10:41;;;;;;;3.60;2.63;;;;;;;19.16;58.61;100341.47;5062465;28;20035;-48
2022/10/21 02:13:09;;;;;;;2.45;2.20;;;;;;;19.15;58.61;100337.13;5065335;28;20036;-50
2022/10/21 02:15:36;;;;;;;2.88;2.38;;;;;;;19.16;58.51;100333.56;5063382;28;20040;-47
2022/10/21 02:18:06;;;;;;;3.25;2.35;;;;;;;19.15;58.54;100338.00;5065464;28;20036;-49
2022/10/21 02:20:38;;;;;;;2.58;2.28;;;;;;;19.16;58.63;100333.56;5061500;28;20544;-50
2022/10/21 02:23:06;;;;;;;2.67;2.47;;;;;;;19.16;58.69;100326.50;5057997;28;20060;-50
2022/10/21 02:25:35;;;;;;;2.47;2.15;;;;;;;19.14;58.60;100333.66;5065803;28;20768;-48
2022/10/21 02:28:01;;;;;;;2.50;2.30;;;;;;;19.15;58.68;100334.50;5064102;28;20047;-46
2022/10/21 02:30:34;;;;;;;2.70;2.45;;;;;;;19.15;58.54;100332.72;5058096;28;20032;-48
2022/10/21 02:33:04;;;;;;;2.90;1.90;;;;;;;19.14;58.59;100333.66;5059568;28;20040;-47
2022/10/21 02:36:02;;;;;;;2.20;1.90;;;;;;;19.15;58.68;100329.25;5062622;28;20035;-47
2022/10/21 02:38:32;;;;;;;2.85;2.20;;;;;;;19.15;58.61;100331.88;5066397;28;20460;-47
2022/10/21 02:41:04;;;;;;;2.53;2.00;;;;;;;19.13;58.67;100329.31;5062286;28;20461;-41
2022/10/21 02:43:36;;;;;;;2.42;2.17;;;;;;;19.13;58.70;100326.69;5065304;28;20032;-42
2022/10/21 02:46:08;;;;;;;2.40;2.20;;;;;;;19.14;58.63;100327.53;5065645;28;20036;-42
2022/10/21 02:48:35;;;;;;;2.10;1.90;;;;;;;19.14;58.65;100323.13;5061260;28;20043;-43
2022/10/21 02:51:03;;;;;;;2.88;2.55;;;;;;;19.14;58.57;100322.28;5063207;28;20118;-42
2022/10/21 02:53:28;;;;;;;2.30;2.00;;;;;;;19.13;58.67;100320.59;5061008;28;20064;-42
2022/10/21 02:55:54;;;;;;;3.63;2.78;;;;;;;19.12;58.59;100321.53;5064619;28;20135;-44
2022/10/21 02:58:19;;;;;;;2.47;2.28;;;;;;;19.13;58.67;100313.53;5062774;28;20051;-43
2022/10/21 03:00:44;;;;;;;2.88;2.20;;;;;;;19.13;58.54;100307.44;5052775;28;20723;-42
2022/10/21 03:03:10;;;;;;;3.15;2.10;;;;;;;19.14;58.58;100311.75;5060297;28;20536;-43
2022/10/21 03:05:35;;;;;;;2.35;2.00;;;;;;;19.14;58.49;100309.97;5061921;28;20059;-42
2022/10/21 03:08:00;;;;;;;2.50;2.10;;;;;;;19.13;58.71;100317.97;5057467;28;20040;-41
2022/10/21 03:10:26;;;;;;;3.08;2.10;;;;;;;19.13;58.57;100305.63;5056065;28;20033;-41
2022/10/21 03:12:51;;;;;;;2.33;2.00;;;;;;;19.14;58.63;100309.09;5066102;28;20029;-42
2022/10/21 03:15:16;;;;;;;3.03;2.10;;;;;;;19.13;58.64;100304.81;5066859;28;20033;-42
2022/10/21 03:17:42;;;;;;;6.60;2.38;;;;;;;19.11;58.47;100293.50;5062558;28;20032;-42
2022/10/21 03:20:07;;;;;;;3.65;2.10;;;;;;;19.12;58.64;100290.78;5064538;28;20059;-43
2022/10/21 03:22:33;;;;;;;2.30;2.10;;;;;;;19.12;58.74;100288.16;5062228;28;20639;-42
2022/10/21 03:24:58;;;;;;;2.65;2.00;;;;;;;19.11;58.64;100275.91;5059101;28;20036;-42
2022/10/21 03:27:25;;;;;;;2.35;1.90;;;;;;;19.13;58.60;100278.47;5059152;28;20519;-42
2022/10/21 03:29:50;;;;;;;4.00;2.50;;;;;;;19.12;58.46;100285.53;5055722;28;20028;-43
2022/10/21 03:32:15;;;;;;;2.53;2.03;;;;;;;19.11;58.58;100275.06;5065334;28;20027;-47
2022/10/21 03:34:41;;;;;;;2.50;2.05;;;;;;;19.12;58.56;100280.25;5062170;28;20067;-47
2022/10/21 03:37:06;;;;;;;2.30;1.92;;;;;;;19.09;58.46;100290.97;5065375;28;20067;-46
2022/10/21 03:39:31;;;;;;;2.78;2.10;;;;;;;19.11;58.64;100291.72;5059389;28;20047;-47
2022/10/21 03:41:57;;;;;;;2.95;2.25;;;;;;;19.11;58.39;100286.47;5062345;28;20044;-47
2022/10/21 03:44:22;;;;;;;3.03;2.22;;;;;;;19.10;58.59;100289.19;5063308;28;20085;-48
2022/10/21 03:46:47;;;;;;;2.78;2.30;;;;;;;19.12;58.58;100300.47;5062706;28;20037;-49
2022/10/21 03:49:13;;;;;;;2.67;2.20;;;;;;;19.12;58.58;100311.00;5057097;28;20045;-48
2022/10/21 03:51:38;;;;;;;2.83;2.40;;;;;;;19.12;58.40;100303.09;5060953;28;20036;-48
2022/10/21 03:54:04;;;;;;;2.22;2.03;;;;;;;19.10;58.66;100300.59;5054749;28;20079;-48
2022/10/21 03:56:29;;;;;;;1.92;1.83;;;;;;;19.09;58.57;100295.41;5061408;28;20040;-49
2022/10/21 03:58:54;;;;;;;2.28;1.95;;;;;;;19.10;58.68;100307.63;5059450;28;20497;-47
2022/10/21 04:01:20;;;;;;;2.67;2.30;;;;;;;19.10;58.46;100299.72;5059782;28;20044;-46
2022/10/21 04:03:45;;;;;;;2.40;1.90;;;;;;;19.11;58.39;100304.88;5057849;28;20363;-46
2022/10/21 04:06:10;;;;;;;2.75;1.92;;;;;;;19.09;58.51;100312.03;5057777;28;20056;-48
2022/10/21 04:08:36;;;;;;;2.25;2.00;;;;;;;19.10;58.51;100307.63;5063091;28;20606;-46
2022/10/21 04:11:01;;;;;;;2.08;1.85;;;;;;;19.10;58.62;100320.78;5053713;28;20517;-47
2022/10/21 04:13:26;;;;;;;2.55;1.88;;;;;;;19.09;58.24;100322.56;5058327;28;20036;-43
2022/10/21 04:15:59;;;;;;;2.17;1.95;;;;;;;19.10;58.54;100313.75;5057573;28;20470;-44
2022/10/21 04:18:25;;;;;;;3.13;2.28;;;;;;;19.11;58.52;100309.31;5056650;28;20032;-44
2022/10/21 04:20:50;;;;;;;2.88;2.53;;;;;;;19.09;58.31;100309.41;5059924;28;20028;-44
2022/10/21 04:23:18;;;;;;;2.25;1.88;;;;;;;19.10;58.56;100312.91;5059237;28;20093;-44
2022/10/21 04:25:44;;;;;;;2.22;2.00;;;;;;;19.09;58.58;100314.69;5058566;28;20036;-43
2022/10/21 04:28:10;;;;;;;2.55;1.90;;;;;;;19.10;58.59;100315.53;5054255;28;20039;-44
2022/10/21 04:30:38;;;;;;;2.47;1.90;;;;;;;19.12;58.46;100311.84;5061022;28;20045;-43
2022/10/21 04:33:03;;;;;;;2.50;2.00;;;;;;;19.04;58.93;100306.22;5064438;28;20048;-44
2022/10/21 04:35:29;;;;;;;2.33;2.00;;;;;;;19.02;58.74;100302.84;5064488;28;20139;-44
2022/10/21 04:37:54;;;;;;;2.58;2.17;;;;;;;19.02;58.76;100301.97;5067358;28;20050;-43
2022/10/21 04:40:19;;;;;;;2.30;2.10;;;;;;;19.02;58.85;100302.84;5057717;28;20278;-43
2022/10/21 04:42:49;;;;;;;2.70;2.22;;;;;;;19.00;58.82;100307.34;5054500;28;20178;-43
2022/10/21 04:45:18;;;;;;;3.45;2.25;;;;;;;19.00;58.84;100299.47;5061848;28;20923;-44
2022/10/21 04:47:44;;;;;;;2.33;1.95;;;;;;;19.04;58.90;100293.06;5062128;28;20025;-45
2022/10/21 04:50:10;;;;;;;2.30;1.90;;;;;;;19.07;58.75;100294.66;5061282;28;20043;-43
2022/10/21 04:52:36;;;;;;;2.75;2.05;;;;;;;19.07;58.71;100292.03;5059081;28;20409;-45
2022/10/21 04:55:02;;;;;;;4.85;2.40;;;;;;;19.10;58.57;100290.06;5060466;28;20139;-43
2022/10/21 04:57:27;;;;;;;2.83;1.98;;;;;;;19.10;58.72;100289.19;5061771;28;20044;-44
2022/10/21 04:59:53;;;;;;;2.78;2.00;;;;;;;19.12;58.66;100292.56;5059466;28;20070;-43
2022/10/21 05:02:18;;;;;;;2.30;2.03;;;;;;;19.14;58.70;100280.16;5060737;28;20120;-43
2022/10/21 05:04:46;;;;;;;3.60;2.05;;;;;;;19.20;58.71;100285.88;5060960;28;20102;-43
2022/10/21 05:07:11;;;;;;;2.97;2.10;;;;;;;19.43;58.41;100286.22;5060214;28;20036;-43
2022/10/21 05:09:37;;;;;;;4.05;2.08;;;;;;;19.46;58.55;100284.19;5058663;28;20041;-44
2022/10/21 05:12:03;;;;;;;3.10;2.20;;;;;;;19.42;58.70;100284.53;5061565;28;20044;-44
2022/10/21 05:14:28;;;;;;;3.88;2.00;;;;;;;19.40;58.81;100281.16;5061309;28;20033;-44
2022/10/21 05:16:53;;;;;;;3.20;2.15;;;;;;;19.39;58.66;100282.09;5061402;28;20040;-43
2022/10/21 05:19:19;;;;;;;2.17;1.98;;;;;;;19.43;58.54;100271.22;5060562;28;20052;-42
2022/10/21 05:21:45;;;;;;;4.25;2.35;;;;;;;19.37;58.83;100262.91;5060615;28;20037;-44
2022/10/21 05:24:12;;;;;;;4.35;2.03;;;;;;;19.35;59.06;100259.50;5058778;28;20037;-44
2022/10/21 05:26:37;;;;;;;2.85;2.13;;;;;;;19.37;58.97;100252.38;5054586;28;20025;-44
2022/10/21 05:29:03;;;;;;;3.45;2.03;;;;;;;19.38;59.17;100256.69;5061048;28;20523;-44
2022/10/21 05:31:28;;;;;;;3.60;1.80;;;;;;;19.43;59.12;100252.78;5061871;28;20040;-44
2022/10/21 05:33:53;;;;;;;3.40;2.20;;;;;;;19.49;58.98;100241.03;5059599;28;20044;-44
2022/10/21 05:36:19;;;;;;;4.38;2.47;;;;;;;19.59;59.04;100236.81;5058708;28;20045;-44
2022/10/21 05:38:44;;;;;;;4.63;2.40;;;;;;;19.61;58.85;100238.41;5063479;28;20036;-45
2022/10/21 05:41:09;;;;;;;3.22;1.95;;;;;;;19.65;58.60;100242.53;5057937;28;20042;-45
2022/10/21 05:43:36;;;;;;;4.22;2.63;;;;;;;19.57;59.58;100238.72;5061921;28;20041;-45
2022/10/21 05:46:04;;;;;;;13.50;3.22;;;;;;;19.62;59.08;100231.34;5060770;28;20040;-44
2022/10/21 05:48:30;;;;;;;3.28;2.00;;;;;;;19.61;58.87;100222.59;5056191;28;20172;-43
2022/10/21 05:50:55;;;;;;;12.45;2.08;;;;;;;19.58;58.97;100227.25;5060564;28;20588;-44
2022/10/21 05:53:25;;;;;;;8.98;2.30;;;;;;;19.62;59.00;100234.00;5059039;28;20816;-44
2022/10/21 05:55:55;;;;;;;4.38;2.10;;;;;;;19.59;58.77;100228.91;5059296;28;20072;-44
2022/10/21 05:58:22;;;;;;;9.40;1.90;;;;;;;19.66;59.22;100224.94;5059973;28;20404;-45
2022/10/21 06:00:48;;;;;;;3.45;1.95;;;;;;;19.90;58.89;100223.28;5059901;28;20037;-45
2022/10/21 06:03:13;;;;;;;6.53;2.30;;;;;;;19.92;58.84;100224.03;5058556;28;20055;-44
2022/10/21 06:05:39;;;;;;;4.82;2.05;;;;;;;19.98;59.15;100234.16;5059105;28;20527;-45
2022/10/21 06:08:04;;;;;;;6.78;2.65;;;;;;;19.96;59.57;100233.41;5062161;28;20094;-44
2022/10/21 06:10:29;;;;;;;3.30;2.05;;;;;;;20.05;58.75;100226.66;5061552;28;20036;-44
2022/10/21 06:12:55;;;;;;;4.90;2.20;;;;;;;20.15;59.24;100218.03;5060909;28;20453;-44
2022/10/21 06:15:20;;;;;;;3.05;1.85;;;;;;;20.16;59.26;100218.88;5061686;28;20033;-44
2022/10/21 06:17:46;;;;;;;4.15;1.90;;;;;;;20.12;59.37;100223.53;5057884;28;20131;-45
2022/10/21 06:20:11;;;;;;;4.30;2.00;;;;;;;20.14;58.88;100207.63;5057375;28;20040;-48
2022/10/21 06:22:37;;;;;;;4.85;2.33;;;;;;;20.10;59.73;100206.13;5058224;28;20044;-50
2022/10/21 06:25:02;;;;;;;2.28;1.85;;;;;;;20.19;59.50;100218.69;5059868;28;20040;-52
2022/10/21 06:27:30;;;;;;;4.78;2.17;;;;;;;20.16;59.59;100221.53;5057061;28;20048;-54
2022/10/21 06:29:56;;;;;;;3.40;2.20;;;;;;;20.09;59.63;100225.53;5058207;28;20036;-52
2022/10/21 06:32:21;;;;;;;2.78;2.03;;;;;;;19.99;60.19;100229.72;5058848;28;20062;-54
2022/10/21 06:34:46;;;;;;;3.40;1.80;;;;;;;20.05;60.12;100230.16;5059160;28;20036;-49
2022/10/21 06:37:12;;;;;;;3.72;2.20;;;;;;;20.00;59.64;100234.03;5061784;28;20047;-49
2022/10/21 06:39:37;;;;;;;4.47;1.98;;;;;;;20.08;59.90;100232.63;5063335;28;20063;-53
2022/10/21 06:42:02;;;;;;;3.20;1.83;;;;;;;20.17;59.68;100237.22;5062907;28;20452;-53
2022/10/21 06:44:28;;;;;;;6.38;1.73;;;;;;;20.17;59.75;100247.78;5065920;28;20028;-53
2022/10/21 06:46:53;;;;;;;4.65;2.00;;;;;;;20.09;59.78;100246.63;5059414;28;20115;-50
2022/10/21 06:49:19;;;;;;;3.22;2.05;;;;;;;19.98;59.38;100244.69;5056359;28;20073;-51
2022/10/21 06:51:44;;;;;;;2.13;1.52;;;;;;;20.00;59.79;100252.50;5057638;28;20036;-51
2022/10/21 06:54:09;;;;;;;5.13;2.47;;;;;;;19.97;60.13;100256.19;5062841;28;20040;-45
2022/10/21 06:56:35;;;;;;;3.60;1.90;;;;;;;20.01;60.05;100267.38;5060478;28;20046;-44
2022/10/21 06:59:00;;;;;;;3.75;2.50;;;;;;;19.94;60.39;100271.34;5060600;28;20036;-41
2022/10/21 07:01:31;;;;;;;3.92;2.10;;;;;;;19.97;59.18;100274.63;5057887;28;20036;-41
2022/10/21 07:03:57;;;;;;;4.50;2.00;;;;;;;19.88;59.51;100287.63;5059403;28;20063;-40
2022/10/21 07:06:23;;;;;;;4.28;2.20;;;;;;;19.82;59.29;100291.47;5058287;28;20123;-40
2022/10/21 07:08:48;;;;;;;6.85;2.20;;;;;;;19.69;59.88;100296.75;5060866;28;20040;-41
2022/10/21 07:11:14;;;;;;;5.45;2.35;;;;;;;19.69;60.23;100309.06;5058340;28;20062;-42
2022/10/21 07:13:40;;;;;;;3.38;2.00;;;;;;;19.66;59.63;100311.91;5058523;28;20056;-43
2022/10/21 07:16:13;;;;;;;4.93;2.22;;;;;;;19.62;59.63;100305.13;5060067;28;20764;-42
2022/10/21 07:18:38;;;;;;;7.60;2.50;;;;;;;19.57;59.77;100299.31;5061831;28;20059;-44
2022/10/21 07:21:06;;;;;;;3.50;1.85;;;;;;;19.57;59.84;100305.44;5055926;28;20033;-42
2022/10/21 07:23:32;;;;;;;2.67;2.00;;;;;;;19.57;59.72;100294.06;5057821;28;20059;-42
2022/10/21 07:25:57;;;;;;;3.33;2.00;;;;;;;19.56;59.90;100295.00;5058835;28;20119;-41
2022/10/21 07:28:22;;;;;;;1.95;1.63;;;;;;;19.57;59.83;100310.72;5057496;28;20465;-42
2022/10/21 07:30:48;;;;;;;3.97;2.08;;;;;;;19.57;59.97;100313.34;5060975;28;20036;-42
2022/10/21 07:33:14;;;;;;;2.95;1.85;;;;;;;19.57;59.93;100312.50;5057106;28;20052;-42
2022/10/21 07:35:39;;;;;;;4.07;1.75;;;;;;;19.62;59.74;100305.97;5055734;28;20040;-42
2022/10/21 07:38:05;;;;;;;5.72;2.58;;;;;;;19.56;59.98;100316.91;5061205;28;20029;-42
2022/10/21 07:40:31;;;;;;;3.85;2.35;;;;;;;19.68;59.88;100312.63;5056377;28;20775;-42
2022/10/21 07:42:57;;;;;;;9.60;2.40;;;;;;;19.60;59.90;100320.22;5053337;28;20135;-42
2022/10/21 07:45:22;;;;;;;6.75;2.60;;;;;;;19.57;59.72;100323.03;5053702;28;20040;-49
2022/10/21 07:47:48;;;;;;;4.13;2.10;;;;;;;19.66;59.78;100325.06;5057656;28;21286;-40
2022/10/21 07:50:14;;;;;;;6.00;1.92;;;;;;;19.72;59.58;100324.69;5051787;28;20060;-39
2022/10/21 07:52:44;;;;;;;4.38;1.95;;;;;;;19.70;59.68;100322.13;5056036;28;20147;-40
2022/10/21 07:55:15;;;;;;;4.15;1.88;;;;;;;19.83;59.32;100316.91;5054605;28;20068;-40
2022/10/21 07:57:41;;;;;;;4.25;2.05;;;;;;;19.73;60.25;100323.72;5053924;28;20033;-40
2022/10/21 08:00:08;;;;;;;9.48;2.17;;;;;;;19.70;60.68;100324.75;5057848;28;20111;-40
2022/10/21 08:02:34;;;;;;;6.57;2.38;;;;;;;19.73;60.03;100331.63;5053775;28;20339;-40
2022/10/21 08:04:59;;;;;;;10.07;2.78;;;;;;;19.67;61.09;100342.56;5056677;28;20805;-40
2022/10/21 08:07:25;;;;;;;5.55;2.08;;;;;;;19.62;60.68;100342.03;5061101;28;20052;-40
2022/10/21 08:09:50;;;;;;;7.05;2.75;;;;;;;19.63;61.49;100347.22;5060149;28;20040;-40
2022/10/21 08:12:16;;;;;;;6.55;2.33;;;;;;;19.79;59.77;100347.88;5058852;28;21140;-42
2022/10/21 08:14:41;;;;;;;6.20;2.42;;;;;;;19.83;60.06;100345.03;5063831;28;20358;-42
2022/10/21 08:17:07;;;;;;;5.90;2.10;;;;;;;19.86;59.65;100345.69;5065110;28;20059;-40
2022/10/21 08:19:32;;;;;;;4.32;2.03;;;;;;;19.78;59.97;100346.22;5059957;28;20037;-40
2022/10/21 08:21:58;;;;;;;5.70;2.17;;;;;;;19.80;60.12;100352.22;5061825;28;20044;-38
2022/10/21 08:24:24;;;;;;;7.05;2.08;;;;;;;19.93;60.33;100356.69;5061784;28;20106;-39
2022/10/21 08:26:50;;;;;;;9.02;2.50;;;;;;;20.02;60.53;100359.56;5060753;28;20028;-38
2022/10/21 08:29:16;;;;;;;9.88;2.53;;;;;;;20.09;60.46;100365.28;5060599;28;20063;-38
2022/10/21 08:31:42;;;;;;;7.63;2.28;;;;;;;20.10;60.43;100359.06;5061205;28;20082;-38
2022/10/21 08:34:08;;;;;;;5.53;2.30;;;;;;;20.12;60.38;100358.00;5062013;28;20048;-38
2022/10/21 08:36:35;;;;;;;8.02;2.60;;;;;;;20.14;60.44;100350.88;5059445;28;20039;-39
2022/10/21 08:39:00;;;;;;;4.30;1.98;;;;;;;20.17;60.35;100358.53;5061395;28;20041;-38
2022/10/21 08:41:29;;;;;;;4.75;2.10;;;;;;;20.18;60.40;100364.66;5058759;28;20101;-37
2022/10/21 08:43:59;;;;;;;5.40;2.13;;;;;;;20.20;60.49;100354.88;5063138;28;20072;-40
2022/10/21 08:46:30;;;;;;;4.30;2.05;;;;;;;20.23;60.62;100354.69;5065157;28;20548;-40
2022/10/21 08:49:02;;;;;;;9.40;1.95;;;;;;;20.23;60.60;100358.13;5061422;28;20036;-39
2022/10/21 08:51:27;;;;;;;7.40;2.45;;;;;;;20.26;60.48;100354.47;5065031;28;20044;-40
2022/10/21 08:54:02;;;;;;;7.25;2.20;;;;;;;20.30;60.75;100359.41;5060115;28;20039;-41
2022/10/21 08:56:29;;;;;;;5.05;2.03;;;;;;;20.30;60.76;100359.41;5056955;28;20085;-41
2022/10/21 08:58:54;;;;;;;6.57;2.25;;;;;;;20.32;60.75;100360.16;5060771;28;20035;-39
2022/10/21 09:01:26;;;;;;;4.50;1.90;;;;;;;20.31;60.81;100358.47;5060537;28;20032;-39
2022/10/21 09:04:07;;;;;;;4.00;1.92;;;;;;;20.34;61.06;100363.56;5059813;28;20044;-39
2022/10/21 09:06:51;;;;;;;4.68;2.38;;;;;;;20.36;60.59;100363.44;5062472;28;20036;-40
2022/10/21 09:09:24;;;;;;;4.07;2.10;;;;;;;20.37;60.67;100367.78;5058478;28;20071;-39
2022/10/21 09:12:14;;;;;;;4.18;1.70;;;;;;;20.36;60.92;100368.72;5060809;28;20032;-42
2022/10/21 09:15:04;;;;;;;3.08;1.80;;;;;;;20.34;61.01;100360.91;5061963;28;20033;-40
2022/10/21 09:17:35;;;;;;;5.00;2.22;;;;;;;20.32;60.76;100361.97;5060009;28;20032;-40
2022/10/21 09:20:20;;;;;;;3.47;2.00;;;;;;;20.32;61.13;100359.34;5063357;28;20044;-39
2022/10/21 09:23:06;;;;;;;5.28;1.90;;;;;;;20.33;61.12;100364.50;5064666;28;20043;-41
2022/10/21 09:25:33;;;;;;;4.30;1.90;;;;;;;20.34;61.21;100366.19;5061747;28;20106;-41
2022/10/21 09:28:08;;;;;;;2.80;1.80;;;;;;;20.35;61.23;100367.03;5057816;28;20045;-41
2022/10/21 09:30:33;;;;;;;;;;;;;;;20.30;61.11;100353.28;5061030;28;20047;-42
2022/10/21 09:32:59;;;;;;;3.78;1.92;;;;;;;20.30;61.30;100356.78;5064085;28;20118;-42
2022/10/21 09:35:35;;;;;;;5.95;2.05;;;;;;;20.33;61.56;100358.38;5042310;28;20027;-41
2022/10/21 09:38:09;;;;;;;6.00;1.73;;;;;;;20.34;61.61;100353.00;5062828;28;20125;-40
2022/10/21 09:40:35;;;;;;;4.88;1.90;;;;;;;20.33;61.58;100350.44;5062197;28;20432;-41
2022/10/21 09:43:01;;;;;;;3.45;1.98;;;;;;;20.33;61.45;100351.31;5062969;28;20569;-42
2022/10/21 09:45:34;;;;;;;4.15;1.90;;;;;;;20.33;61.51;100368.91;5067034;28;20032;-43
2022/10/21 09:48:22;;;;;;;4.53;1.92;;;;;;;20.32;61.85;100377.81;5061053;28;20070;-42
2022/10/21 09:50:55;;;;;;;3.30;1.75;;;;;;;20.33;61.68;100380.31;5058349;28;20021;-43
2022/10/21 09:53:20;;;;;;;2.55;1.55;;;;;;;20.32;61.63;100370.69;5061859;28;20028;-42
2022/10/21 09:55:51;;;;;;;2.47;1.60;;;;;;;20.32;61.79;100368.06;5063532;28;20773;-43
2022/10/21 09:58:26;;;;;;;3.38;1.63;;;;;;;20.34;61.69;100346.88;5056150;28;20554;-41
2022/10/21 10:00:52;;;;;;;2.45;2.10;;;;;;;20.34;61.78;100336.31;5059898;28;20066;-45
2022/10/21 10:03:31;;;;;;;3.63;1.88;;;;;;;20.33;61.69;100317.00;5060638;28;20029;-43
2022/10/21 10:05:57;;;;;;;3.08;1.52;;;;;;;20.33;61.73;100303.81;5058059;28;20072;-45
2022/10/21 10:08:43;;;;;;;3.55;1.55;;;;;;;20.34;61.82;100289.69;5064228;28;20025;-43
2022/10/21 10:11:09;;;;;;;4.90;1.98;;;;;;;20.34;61.88;100286.19;5059544;28;20042;-41
2022/10/21 10:13:44;;;;;;;5.38;1.95;;;;;;;20.34;61.95;100316.06;5050872;28;20389;-44
2022/10/21 10:16:22;;;;;;;3.58;1.88;;;;;;;20.35;62.06;100348.56;5063358;28;20049;-44
2022/10/21 10:18:52;;;;;;;3.58;1.77;;;;;;;20.33;61.76;100356.56;5061954;28;20113;-44
2022/10/21 10:21:21;;;;;;;4.88;1.70;;;;;;;20.35;62.09;100359.13;5061282;28;20150;-46
2022/10/21 10:23:53;;;;;;;4.38;1.88;;;;;;;20.37;61.82;100367.78;5056536;28;20035;-45
2022/10/21 10:26:24;;;;;;;2.15;1.48;;;;;;;20.40;62.08;100390.47;5062937;28;20113;-45
2022/10/21 10:28:54;;;;;;;3.70;1.65;;;;;;;20.42;61.96;100396.47;5059225;28;20071;-44
2022/10/21 10:31:29;;;;;;;3.55;1.70;;;;;;;20.45;61.94;100397.09;5062905;28;20051;-44
2022/10/21 10:34:02;;;;;;;3.97;1.55;;;;;;;20.56;61.82;100401.69;5059882;28;20036;-44
2022/10/21 10:36:35;;;;;;;8.88;2.10;;;;;;;20.39;61.84;100408.06;5058207;28;20036;-44
2022/10/21 10:39:03;;;;;;;3.92;2.03;;;;;;;20.40;61.85;100420.31;5058942;28;20044;-44
2022/10/21 10:41:33;;;;;;;5.30;1.80;;;;;;;20.25;61.30;100414.28;5062072;28;20031;-47
2022/10/21 10:44:00;;;;;;;3.40;2.10;;;;;;;20.22;62.72;100426.81;5057706;28;20068;-48
2022/10/21 10:46:29;;;;;;;8.40;2.13;;;;;;;20.19;61.54;100429.66;5058539;28;20752;-46
2022/10/21 10:48:58;;;;;;;5.88;1.92;;;;;;;20.06;62.63;100434.00;5064849;28;20060;-48
2022/10/21 10:51:27;;;;;;;5.28;2.13;;;;;;;20.10;62.18;100427.63;5055332;28;20048;-45
2022/10/21 10:54:06;;;;;;;7.03;2.60;;;;;;;20.19;61.76;100427.88;5059973;28;20549;-49
2022/10/21 10:56:48;;;;;;;5.25;1.90;;;;;;;20.19;61.64;100437.56;5059828;28;20186;-46
2022/10/21 10:59:22;;;;;;;6.63;2.20;;;;;;;20.07;61.73;100433.94;5056612;28;20071;-46
2022/10/21 11:01:53;;;;;;;7.45;2.85;;;;;;;20.10;61.49;100432.91;5059327;28;20036;-45
2022/10/21 11:04:32;;;;;;;5.63;2.00;;;;;;;19.87;62.12;100430.91;5058130;28;20048;-41
2022/10/21 11:07:11;;;;;;;2.95;2.00;;;;;;;19.99;62.80;100430.97;5055106;28;20028;-42
2022/10/21 11:09:37;;;;;;;3.55;1.95;;;;;;;19.96;62.14;100430.31;5064271;28;20036;-43
2022/10/21 11:12:10;;;;;;;5.22;2.15;;;;;;;20.06;62.68;100431.38;5063454;28;20048;-42
2022/10/21 11:14:35;;;;;;;3.35;2.15;;;;;;;20.07;62.77;100439.19;5053446;28;20147;-44
2022/10/21 11:17:17;;;;;;;3.15;1.77;;;;;;;20.14;62.49;100426.50;5054462;28;20040;-45
2022/10/21 11:20:18;;;;;;;3.47;1.75;;;;;;;20.09;61.19;100425.94;5061242;28;20036;-45
2022/10/21 11:22:55;;;;;;;4.25;2.08;;;;;;;20.06;61.76;100416.41;5058628;28;20087;-45
2022/10/21 11:25:26;;;;;;;3.42;1.90;;;;;;;19.97;61.68;100414.38;5058356;28;20041;-44
2022/10/21 11:28:03;;;;;;;4.15;2.13;;;;;;;20.00;62.10;100415.94;5056748;28;20131;-45
2022/10/21 11:30:52;;;;;;;5.82;1.95;;;;;;;20.11;61.14;100408.25;5054730;28;20059;-46
2022/10/21 11:33:48;;;;;;;7.22;2.10;;;;;;;20.04;62.20;100399.84;5048644;28;20522;-45